createdAt,value
2019-05-11T00:01:53.915Z,9.24
2019-05-11T00:04:22.896Z,9.32
2019-05-11T00:06:51.605Z,9.26
2019-05-11T00:09:20.462Z,9.37
2019-05-11T00:11:49.302Z,9.27
2019-05-11T00:14:18.062Z,9.36
2019-05-11T00:16:46.862Z,9.27
2019-05-11T00:19:15.662Z,9.05
2019-05-11T00:21:44.502Z,9.15
2019-05-11T00:24:13.278Z,9.12
2019-05-11T00:26:42.141Z,9.03
2019-05-11T00:29:10.981Z,8.93
2019-05-11T00:31:39.790Z,9.02
2019-05-11T00:34:08.662Z,8.88
2019-05-11T00:36:37.465Z,8.73
2019-05-11T00:39:07.742Z,8.65
2019-05-11T00:41:36.688Z,8.78
2019-05-11T00:44:05.546Z,8.89
2019-05-11T00:46:34.343Z,8.80
2019-05-11T00:49:03.195Z,8.68
2019-05-11T00:51:32.023Z,8.59
2019-05-11T00:54:00.787Z,8.61
2019-05-11T00:56:29.544Z,8.64
2019-05-11T00:58:58.426Z,8.48
2019-05-11T01:01:27.264Z,8.71
2019-05-11T01:03:56.039Z,8.60
2019-05-11T01:06:24.903Z,8.57
2019-05-11T01:08:53.745Z,8.69
2019-05-11T01:11:22.633Z,8.62
2019-05-11T01:13:51.504Z,8.49
2019-05-11T01:16:20.304Z,8.28
2019-05-11T01:18:49.188Z,8.29
2019-05-11T01:21:18.104Z,8.25
2019-05-11T01:23:46.905Z,8.15
2019-05-11T01:26:15.705Z,8.05
2019-05-11T01:28:44.503Z,7.93
2019-05-11T01:31:13.430Z,7.90
2019-05-11T01:33:42.305Z,7.83
2019-05-11T01:36:11.270Z,7.76
2019-05-11T01:38:40.187Z,7.73
2019-05-11T01:41:08.985Z,7.72
2019-05-11T01:43:37.745Z,7.67
2019-05-11T01:46:06.704Z,7.64
2019-05-11T01:48:35.552Z,7.62
2019-05-11T01:51:04.306Z,7.79
2019-05-11T01:53:33.106Z,7.95
2019-05-11T01:56:01.965Z,7.88
2019-05-11T01:58:30.981Z,7.86
2019-05-11T02:00:59.825Z,7.69
2019-05-11T02:03:28.690Z,7.40
2019-05-11T02:05:57.505Z,7.38
2019-05-11T02:08:26.353Z,7.38
2019-05-11T02:10:55.147Z,7.38
2019-05-11T02:13:23.984Z,7.28
2019-05-11T02:15:52.784Z,7.18
2019-05-11T02:18:21.585Z,7.10
2019-05-11T02:20:50.507Z,6.92
2019-05-11T02:23:19.305Z,6.86
2019-05-11T02:25:48.104Z,7.02
2019-05-11T02:28:16.909Z,7.01
2019-05-11T02:30:45.745Z,6.99
2019-05-11T02:33:14.585Z,6.85
2019-05-11T02:35:43.467Z,6.95
2019-05-11T02:38:12.267Z,7.01
2019-05-11T02:40:41.235Z,7.23
2019-05-11T02:43:10.149Z,7.14
2019-05-11T02:45:41.116Z,7.28
2019-05-11T02:48:10.169Z,7.40
2019-05-11T02:50:39.585Z,7.20
2019-05-11T02:53:09.366Z,7.11
2019-05-11T02:55:39.390Z,7.08
2019-05-11T02:58:08.717Z,7.20
2019-05-11T03:00:40.319Z,7.20
2019-05-11T03:03:09.264Z,7.21
2019-05-11T03:05:38.065Z,7.14
2019-05-11T03:08:07.187Z,7.24
2019-05-11T03:10:35.946Z,7.13
2019-05-11T03:13:04.907Z,6.92
2019-05-11T03:15:33.754Z,6.68
2019-05-11T03:18:02.660Z,6.34
2019-05-11T03:20:31.729Z,6.22
2019-05-11T03:23:00.558Z,5.96
2019-05-11T03:25:29.425Z,5.66
2019-05-11T03:27:58.546Z,5.77
2019-05-11T03:30:27.459Z,5.85
2019-05-11T03:32:56.345Z,6.04
2019-05-11T03:35:25.189Z,6.12
2019-05-11T03:37:53.990Z,6.12
2019-05-11T03:40:22.999Z,6.14
2019-05-11T03:42:51.826Z,6.20
2019-05-11T03:45:20.745Z,6.33
2019-05-11T03:47:49.545Z,6.53
2019-05-11T03:50:18.392Z,6.61
2019-05-11T03:52:47.306Z,6.58
2019-05-11T03:55:16.271Z,6.54
2019-05-11T03:57:45.148Z,6.63
2019-05-11T04:00:14.385Z,6.47
2019-05-11T04:02:43.185Z,6.57
2019-05-11T04:05:12.105Z,6.61
2019-05-11T04:07:41.017Z,6.76
2019-05-11T04:10:10.665Z,7.02
2019-05-11T04:12:39.591Z,7.05
2019-05-11T04:15:08.783Z,7.07
2019-05-11T04:17:37.586Z,7.10
2019-05-11T04:20:07.185Z,7.22
2019-05-11T04:22:36.035Z,7.39
2019-05-11T04:25:06.268Z,7.43
2019-05-11T04:27:35.165Z,7.51
2019-05-11T04:30:06.238Z,7.78
2019-05-11T04:32:35.106Z,7.80
2019-05-11T04:35:04.625Z,7.82
2019-05-11T04:37:33.425Z,7.84
2019-05-11T04:40:02.241Z,7.91
2019-05-11T04:42:31.107Z,7.98
2019-05-11T04:44:59.945Z,8.12
2019-05-11T04:47:28.790Z,8.18
2019-05-11T04:49:57.664Z,8.24
2019-05-11T04:52:26.506Z,8.29
2019-05-11T04:54:55.268Z,8.51
2019-05-11T04:57:24.064Z,8.64
2019-05-11T04:59:52.903Z,8.66
2019-05-11T05:02:21.905Z,8.83
2019-05-11T05:04:50.894Z,8.99
2019-05-11T05:07:19.703Z,8.91
2019-05-11T05:09:48.501Z,9.08
2019-05-11T05:12:17.344Z,8.96
2019-05-11T05:14:46.226Z,9.21
2019-05-11T05:17:15.031Z,9.33
2019-05-11T05:19:43.904Z,9.34
2019-05-11T05:22:12.666Z,9.51
2019-05-11T05:24:41.513Z,9.57
2019-05-11T05:27:10.351Z,9.65
2019-05-11T05:29:39.227Z,9.80
2019-05-11T05:32:09.584Z,9.95
2019-05-11T05:34:38.822Z,9.98
2019-05-11T05:37:10.423Z,10.26
2019-05-11T05:39:39.273Z,10.33
2019-05-11T05:42:08.034Z,10.41
2019-05-11T05:44:36.862Z,10.56
2019-05-11T05:47:05.702Z,10.61
2019-05-11T05:49:34.506Z,10.84
2019-05-11T05:52:03.379Z,11.00
2019-05-11T05:54:32.221Z,11.05
2019-05-11T05:57:00.992Z,11.28
2019-05-11T05:59:29.823Z,11.41
2019-05-11T06:01:58.671Z,11.46
2019-05-11T06:04:27.461Z,11.39
2019-05-11T06:06:56.210Z,11.61
2019-05-11T06:09:25.021Z,11.77
2019-05-11T06:11:53.902Z,11.85
2019-05-11T06:14:22.705Z,11.93
2019-05-11T06:16:51.701Z,11.97
2019-05-11T06:19:20.504Z,12.12
2019-05-11T06:21:49.344Z,12.27
2019-05-11T06:24:18.265Z,12.30
2019-05-11T06:26:47.103Z,12.46
2019-05-11T06:29:15.906Z,12.60
2019-05-11T06:31:44.821Z,12.72
2019-05-11T06:34:13.626Z,12.87
2019-05-11T06:36:42.423Z,12.85
2019-05-11T06:39:11.183Z,12.85
2019-05-11T06:41:40.067Z,12.91
2019-05-11T06:44:08.901Z,13.08
2019-05-11T06:46:37.701Z,13.24
2019-05-11T06:49:06.503Z,13.38
2019-05-11T06:51:35.302Z,13.51
2019-05-11T06:54:04.101Z,13.58
2019-05-11T06:56:32.982Z,13.69
2019-05-11T06:59:01.799Z,13.84
2019-05-11T07:01:30.666Z,13.83
2019-05-11T07:03:59.546Z,13.91
2019-05-11T07:06:30.482Z,14.03
2019-05-11T07:08:58.881Z,14.13
2019-05-11T07:11:27.741Z,14.17
2019-05-11T07:13:56.544Z,14.15
2019-05-11T07:16:25.344Z,14.22
2019-05-11T07:18:54.222Z,14.29
2019-05-11T07:21:22.986Z,14.41
2019-05-11T07:23:51.839Z,14.59
2019-05-11T07:26:20.704Z,14.74
2019-05-11T07:28:49.511Z,14.82
2019-05-11T07:31:18.303Z,14.87
2019-05-11T07:33:48.646Z,14.95
2019-05-11T07:36:17.862Z,15.07
2019-05-11T07:38:48.715Z,15.18
2019-05-11T07:41:17.674Z,15.32
2019-05-11T07:43:48.516Z,15.49
2019-05-11T07:46:18.258Z,15.67
2019-05-11T07:48:47.949Z,15.77
2019-05-11T07:51:18.243Z,15.85
2019-05-11T07:53:48.707Z,16.04
2019-05-11T07:56:18.767Z,16.19
2019-05-11T07:58:48.202Z,16.18
2019-05-11T08:01:18.861Z,15.99
2019-05-11T08:03:48.474Z,15.96
2019-05-11T08:06:18.331Z,16.02
2019-05-11T08:08:49.000Z,16.25
2019-05-11T08:11:18.414Z,16.35
2019-05-11T08:13:48.113Z,16.51
2019-05-11T08:16:18.544Z,16.64
2019-05-11T08:18:48.389Z,16.83
2019-05-11T08:21:17.997Z,17.03
2019-05-11T08:23:48.401Z,17.03
2019-05-11T08:26:19.037Z,17.07
2019-05-11T08:28:48.616Z,17.35
2019-05-11T08:31:18.741Z,17.59
2019-05-11T08:33:48.168Z,17.80
2019-05-11T08:36:18.386Z,18.11
2019-05-11T08:38:48.420Z,18.32
2019-05-11T08:41:18.417Z,18.46
2019-05-11T08:43:48.181Z,18.65
2019-05-11T08:46:18.609Z,18.63
2019-05-11T08:48:47.941Z,18.43
2019-05-11T08:51:18.682Z,18.80
2019-05-11T08:53:48.170Z,19.10
2019-05-11T08:56:18.923Z,18.67
2019-05-11T08:58:49.254Z,18.13
2019-05-11T09:01:18.568Z,18.00
2019-05-11T09:03:48.051Z,17.96
2019-05-11T09:06:17.857Z,17.43
2019-05-11T09:08:49.208Z,17.64
2019-05-11T09:11:19.116Z,17.98
2019-05-11T09:13:48.900Z,18.10
2019-05-11T09:16:18.927Z,18.24
2019-05-11T09:18:48.252Z,18.39
2019-05-11T09:21:19.081Z,18.37
2019-05-11T09:23:48.762Z,18.80
2019-05-11T09:26:18.357Z,19.38
2019-05-11T09:28:47.776Z,19.85
2019-05-11T09:31:18.813Z,20.35
2019-05-11T09:33:48.015Z,20.63
2019-05-11T09:36:18.028Z,20.42
2019-05-11T09:38:49.043Z,20.43
2019-05-11T09:41:18.296Z,20.71
2019-05-11T09:43:48.319Z,21.02
2019-05-11T09:46:18.791Z,21.45
2019-05-11T09:48:48.568Z,21.90
2019-05-11T09:51:18.429Z,22.19
2019-05-11T09:53:48.372Z,22.53
2019-05-11T09:56:18.284Z,22.90
2019-05-11T09:58:48.102Z,23.21
2019-05-11T10:01:18.234Z,23.45
2019-05-11T10:03:48.326Z,23.52
2019-05-11T10:06:18.987Z,23.64
2019-05-11T10:08:48.729Z,22.96
2019-05-11T10:11:18.983Z,23.03
2019-05-11T10:13:48.125Z,23.07
2019-05-11T10:16:17.924Z,23.11
2019-05-11T10:18:49.242Z,22.65
2019-05-11T10:21:18.722Z,22.29
2019-05-11T10:23:48.876Z,21.95
2019-05-11T10:26:18.935Z,21.69
2019-05-11T10:28:48.307Z,21.93
2019-05-11T10:31:18.097Z,22.73
2019-05-11T10:33:48.914Z,23.20
2019-05-11T10:36:18.961Z,23.11
2019-05-11T10:38:48.732Z,23.12
2019-05-11T10:41:18.338Z,22.58
2019-05-11T10:43:49.036Z,22.10
2019-05-11T10:46:23.042Z,22.40
2019-05-11T10:48:48.672Z,23.27
2019-05-11T10:51:18.458Z,24.22
2019-05-11T10:53:51.346Z,24.90
2019-05-11T10:56:18.290Z,24.57
2019-05-11T10:58:48.271Z,23.88
2019-05-11T11:01:18.263Z,23.38
2019-05-11T11:03:48.375Z,23.21
2019-05-11T11:06:18.911Z,23.21
2019-05-11T11:08:48.801Z,22.68
2019-05-11T11:11:18.465Z,22.19
2019-05-11T11:13:48.167Z,21.42
2019-05-11T11:16:32.697Z,21.51
2019-05-11T11:18:48.657Z,21.84
2019-05-11T11:21:22.564Z,21.32
2019-05-11T11:23:48.434Z,20.80
2019-05-11T11:26:18.442Z,20.43
2019-05-11T11:28:47.994Z,20.93
2019-05-11T11:31:18.783Z,21.28
2019-05-11T11:33:48.981Z,21.61
2019-05-11T11:36:18.126Z,21.42
2019-05-11T11:38:47.893Z,21.40
2019-05-11T11:41:18.482Z,21.22
2019-05-11T11:43:48.317Z,22.00
2019-05-11T11:46:18.847Z,22.68
2019-05-11T11:48:48.916Z,23.26
2019-05-11T11:51:18.783Z,23.38
2019-05-11T11:53:48.165Z,23.42
2019-05-11T11:56:19.115Z,24.05
2019-05-11T11:58:48.759Z,25.11
2019-05-11T12:01:18.992Z,26.24
2019-05-11T12:03:48.980Z,26.58
2019-05-11T12:06:18.477Z,26.04
2019-05-11T12:08:49.663Z,24.87
2019-05-11T12:11:18.744Z,24.32
2019-05-11T12:13:47.968Z,23.66
2019-05-11T12:16:17.993Z,22.89
2019-05-11T12:18:48.662Z,22.39
2019-05-11T12:21:18.544Z,21.99
2019-05-11T12:23:48.590Z,21.57
2019-05-11T12:26:17.992Z,21.15
2019-05-11T12:28:49.048Z,20.63
2019-05-11T12:31:18.409Z,20.68
2019-05-11T12:33:48.300Z,20.93
2019-05-11T12:36:18.837Z,21.43
2019-05-11T12:38:48.842Z,22.00
2019-05-11T12:41:19.049Z,21.78
2019-05-11T12:43:48.892Z,21.58
2019-05-11T12:46:18.887Z,21.47
2019-05-11T12:48:48.604Z,21.90
2019-05-11T12:51:18.618Z,22.00
2019-05-11T12:53:47.929Z,21.66
2019-05-11T12:56:19.055Z,21.63
2019-05-11T12:58:49.116Z,22.17
2019-05-11T13:01:18.677Z,22.38
2019-05-11T13:03:49.214Z,22.54
2019-05-11T13:06:19.181Z,22.37
2019-05-11T13:08:48.406Z,21.67
2019-05-11T13:11:18.641Z,22.31
2019-05-11T13:13:58.373Z,22.47
2019-05-11T13:16:38.024Z,22.79
2019-05-11T13:19:14.492Z,22.18
2019-05-11T13:21:53.288Z,21.71
2019-05-11T13:24:28.167Z,22.28
2019-05-11T13:27:00.802Z,22.24
2019-05-11T13:29:41.006Z,22.06
2019-05-11T13:32:10.592Z,22.00
2019-05-11T13:34:39.395Z,21.77
2019-05-11T13:37:08.240Z,21.75
2019-05-11T13:39:37.810Z,22.00
2019-05-11T13:42:08.164Z,22.03
2019-05-11T13:44:38.511Z,21.49
2019-05-11T13:47:08.603Z,21.45
2019-05-11T13:49:37.882Z,21.17
2019-05-11T13:52:08.601Z,21.01
2019-05-11T13:54:37.634Z,20.69
2019-05-11T13:57:07.999Z,20.95
2019-05-11T13:59:38.512Z,21.28
2019-05-11T14:02:10.661Z,21.58
2019-05-11T14:04:38.634Z,21.71
2019-05-11T14:07:08.205Z,21.26
2019-05-11T14:09:38.029Z,21.22
2019-05-11T14:12:07.739Z,21.29
2019-05-11T14:14:37.735Z,21.42
2019-05-11T14:17:08.249Z,21.58
2019-05-11T14:19:38.527Z,21.33
2019-05-11T14:22:08.671Z,21.37
2019-05-11T14:24:37.821Z,21.32
2019-05-11T14:27:08.637Z,21.07
2019-05-11T14:29:38.514Z,21.07
2019-05-11T14:32:08.535Z,21.16
2019-05-11T14:34:38.746Z,21.00
2019-05-11T14:37:08.784Z,20.97
2019-05-11T14:39:38.440Z,20.99
2019-05-11T14:42:07.668Z,20.83
2019-05-11T14:44:37.698Z,21.14
2019-05-11T14:47:08.523Z,21.58
2019-05-11T14:49:37.843Z,21.95
2019-05-11T14:52:08.262Z,21.78
2019-05-11T14:54:38.220Z,22.00
2019-05-11T14:57:08.043Z,21.44
2019-05-11T14:59:38.540Z,21.36
2019-05-11T15:02:11.914Z,21.38
2019-05-11T15:04:40.835Z,21.25
2019-05-11T15:07:09.977Z,21.31
2019-05-11T15:09:38.876Z,21.41
2019-05-11T15:12:08.639Z,21.54
2019-05-11T15:14:37.844Z,21.62
2019-05-11T15:17:08.111Z,21.60
2019-05-11T15:19:38.271Z,21.45
2019-05-11T15:22:08.651Z,21.36
2019-05-11T15:24:38.454Z,21.19
2019-05-11T15:27:08.131Z,21.20
2019-05-11T15:29:37.795Z,21.23
2019-05-11T15:32:08.433Z,21.24
2019-05-11T15:34:37.934Z,21.11
2019-05-11T15:37:08.415Z,21.23
2019-05-11T15:39:37.848Z,21.27
2019-05-11T15:42:10.929Z,21.47
2019-05-11T15:44:37.834Z,21.11
2019-05-11T15:47:07.811Z,20.94
2019-05-11T15:49:37.614Z,20.81
2019-05-11T15:52:08.147Z,20.89
2019-05-11T15:54:38.542Z,20.76
2019-05-11T15:57:08.413Z,20.93
2019-05-11T15:59:38.852Z,21.09
2019-05-11T16:02:08.589Z,21.16
2019-05-11T16:04:38.154Z,21.07
2019-05-11T16:07:08.337Z,21.21
2019-05-11T16:09:38.078Z,21.16
2019-05-11T16:12:07.304Z,20.97
2019-05-11T16:14:38.223Z,20.91
2019-05-11T16:17:08.727Z,20.79
2019-05-11T16:19:38.054Z,20.57
2019-05-11T16:22:09.858Z,20.47
2019-05-11T16:24:40.057Z,20.18
2019-05-11T16:27:08.913Z,20.05
2019-05-11T16:29:38.460Z,19.59
2019-05-11T16:32:08.351Z,19.38
2019-05-11T16:34:38.235Z,19.34
2019-05-11T16:37:09.890Z,19.21
2019-05-11T16:39:38.447Z,19.16
2019-05-11T16:42:08.474Z,19.18
2019-05-11T16:44:37.836Z,19.20
2019-05-11T16:47:07.877Z,19.09
2019-05-11T16:49:38.436Z,19.02
2019-05-11T16:52:07.828Z,19.00
2019-05-11T16:54:38.744Z,18.95
2019-05-11T16:57:08.598Z,18.89
2019-05-11T16:59:39.830Z,18.85
2019-05-11T17:02:08.438Z,18.89
2019-05-11T17:04:39.672Z,18.92
2019-05-11T17:07:07.994Z,18.85
2019-05-11T17:09:37.809Z,18.65
2019-05-11T17:12:08.544Z,18.67
2019-05-11T17:14:38.834Z,18.65
2019-05-11T17:17:08.332Z,18.62
2019-05-11T17:19:43.681Z,18.52
2019-05-11T17:22:08.299Z,18.51
2019-05-11T17:24:37.893Z,18.58
2019-05-11T17:27:08.816Z,18.55
2019-05-11T17:29:38.095Z,18.49
2019-05-11T17:32:08.558Z,18.51
2019-05-11T17:34:38.144Z,18.56
2019-05-11T17:37:08.856Z,18.46
2019-05-11T17:39:38.609Z,18.61
2019-05-11T17:42:08.960Z,18.59
2019-05-11T17:44:37.986Z,18.73
2019-05-11T17:47:08.449Z,18.54
2019-05-11T17:49:38.342Z,18.47
2019-05-11T17:52:08.099Z,18.30
2019-05-11T17:54:38.361Z,18.24
2019-05-11T17:57:07.440Z,18.19
2019-05-11T17:59:38.487Z,18.32
2019-05-11T18:02:06.873Z,18.27
2019-05-11T18:04:35.674Z,18.40
2019-05-11T18:07:04.513Z,18.39
2019-05-11T18:09:33.395Z,18.37
2019-05-11T18:12:02.193Z,18.39
2019-05-11T18:14:30.993Z,18.40
2019-05-11T18:16:59.807Z,18.36
2019-05-11T18:19:28.674Z,18.28
2019-05-11T18:21:57.820Z,18.21
2019-05-11T18:24:28.541Z,18.19
2019-05-11T18:26:59.112Z,18.11
2019-05-11T18:29:28.829Z,18.05
2019-05-11T18:31:58.441Z,17.90
2019-05-11T18:34:27.313Z,17.77
2019-05-11T18:36:57.853Z,17.75
2019-05-11T18:39:28.678Z,17.57
2019-05-11T18:41:58.721Z,17.64
2019-05-11T18:44:27.753Z,17.68
2019-05-11T18:46:59.104Z,17.53
2019-05-11T18:49:28.534Z,17.34
2019-05-11T18:51:58.662Z,17.45
2019-05-11T18:54:27.828Z,17.51
2019-05-11T18:56:58.813Z,17.42
2019-05-11T18:59:28.380Z,17.36
2019-05-11T19:01:58.659Z,17.37
2019-05-11T19:04:28.769Z,17.37
2019-05-11T19:06:57.833Z,17.31
2019-05-11T19:09:28.394Z,17.38
2019-05-11T19:11:58.432Z,17.35
2019-05-11T19:14:28.129Z,17.31
2019-05-11T19:16:57.072Z,17.33
2019-05-11T19:19:25.832Z,17.16
2019-05-11T19:21:54.674Z,17.26
2019-05-11T19:24:23.593Z,17.15
2019-05-11T19:26:52.393Z,17.10
2019-05-11T19:29:21.194Z,17.13
2019-05-11T19:31:49.993Z,17.08
2019-05-11T19:34:20.422Z,17.17
2019-05-11T19:36:49.514Z,17.04
2019-05-11T19:39:19.333Z,16.93
2019-05-11T19:41:48.363Z,16.94
2019-05-11T19:44:18.741Z,16.78
2019-05-11T19:46:47.832Z,16.82
2019-05-11T19:49:18.816Z,16.66
2019-05-11T19:51:48.711Z,16.65
2019-05-11T19:54:18.662Z,16.65
2019-05-11T19:56:47.753Z,16.71
2019-05-11T19:59:16.475Z,16.66
2019-05-11T20:01:45.315Z,16.50
2019-05-11T20:04:14.038Z,16.55
2019-05-11T20:06:42.833Z,16.50
2019-05-11T20:09:11.713Z,16.50
2019-05-11T20:11:40.592Z,16.39
2019-05-11T20:14:09.354Z,16.46
2019-05-11T20:16:38.154Z,16.41
2019-05-11T20:19:08.623Z,16.25
2019-05-11T20:21:38.198Z,16.39
2019-05-11T20:24:08.490Z,16.29
2019-05-11T20:26:37.926Z,16.35
2019-05-11T20:29:08.194Z,16.33
2019-05-11T20:31:37.273Z,16.22
2019-05-11T20:34:06.075Z,16.17
2019-05-11T20:36:34.875Z,16.20
2019-05-11T20:39:05.313Z,16.14
2019-05-11T20:41:34.152Z,16.18
2019-05-11T20:44:02.913Z,16.22
2019-05-11T20:46:31.712Z,16.20
2019-05-11T20:49:00.592Z,16.34
2019-05-11T20:51:36.679Z,16.26
2019-05-11T20:53:59.873Z,16.21
2019-05-11T20:56:28.756Z,16.09
2019-05-11T20:58:59.210Z,15.97
2019-05-11T21:01:28.907Z,15.98
2019-05-11T21:03:58.607Z,16.02
2019-05-11T21:06:29.593Z,16.04
2019-05-11T21:08:58.316Z,15.98
2019-05-11T21:11:27.034Z,15.97
2019-05-11T21:13:55.862Z,15.90
2019-05-11T21:16:24.720Z,15.93
2019-05-11T21:18:53.516Z,15.97
2019-05-11T21:21:22.392Z,15.88
2019-05-11T21:23:51.193Z,15.89
2019-05-11T21:26:19.994Z,15.88
2019-05-11T21:28:48.827Z,15.88
2019-05-11T21:31:18.650Z,15.74
2019-05-11T21:33:47.672Z,15.69
2019-05-11T21:36:17.977Z,15.57
2019-05-11T21:38:48.283Z,15.53
2019-05-11T21:41:17.397Z,15.56
2019-05-11T21:43:48.274Z,15.85
2019-05-11T21:46:18.108Z,15.56
2019-05-11T21:48:47.848Z,15.35
2019-05-11T21:51:18.109Z,15.20
2019-05-11T21:53:48.653Z,15.20
2019-05-11T21:56:18.753Z,15.09
2019-05-11T21:58:47.757Z,15.04
2019-05-11T22:01:18.421Z,14.95
2019-05-11T22:03:47.915Z,14.89
2019-05-11T22:06:16.958Z,15.04
2019-05-11T22:08:48.227Z,15.15
2019-05-11T22:11:17.967Z,14.92
2019-05-11T22:13:48.461Z,14.74
2019-05-11T22:16:17.352Z,14.54
2019-05-11T22:18:48.389Z,14.62
2019-05-11T22:21:18.743Z,14.54
2019-05-11T22:23:47.453Z,14.63
2019-05-11T22:26:18.076Z,14.45
2019-05-11T22:28:48.123Z,14.50
2019-05-11T22:31:18.259Z,14.36
2019-05-11T22:33:48.013Z,14.36
2019-05-11T22:36:16.934Z,14.29
2019-05-11T22:38:48.151Z,14.20
2019-05-11T22:41:18.089Z,14.19
2019-05-11T22:43:48.544Z,14.02
2019-05-11T22:46:17.820Z,13.86
2019-05-11T22:48:48.919Z,13.78
2019-05-11T22:51:18.313Z,13.78
2019-05-11T22:53:50.281Z,13.79
2019-05-11T22:56:20.173Z,13.58
2019-05-11T22:58:49.929Z,13.71
2019-05-11T23:01:18.992Z,13.80
2019-05-11T23:03:47.872Z,13.78
2019-05-11T23:06:18.065Z,13.67
2019-05-11T23:08:48.303Z,13.63
2019-05-11T23:11:18.029Z,13.67
2019-05-11T23:13:47.934Z,13.80
2019-05-11T23:16:18.010Z,13.87
2019-05-11T23:18:48.114Z,13.70
2019-05-11T23:21:17.072Z,13.43
2019-05-11T23:23:47.786Z,13.46
2019-05-11T23:26:17.804Z,13.65
2019-05-11T23:28:48.711Z,13.72
2019-05-11T23:31:17.356Z,13.63
2019-05-11T23:33:46.192Z,13.47
2019-05-11T23:36:14.993Z,13.14
2019-05-11T23:38:43.792Z,12.90
2019-05-11T23:41:24.268Z,12.83
2019-05-11T23:43:43.233Z,12.55
2019-05-11T23:46:11.955Z,12.68
2019-05-11T23:48:40.796Z,12.69
2019-05-11T23:51:09.593Z,12.87
2019-05-11T23:53:38.872Z,13.05
2019-05-11T23:56:07.713Z,13.06
2019-05-11T23:58:38.965Z,13.06
